• Join FlightAware (Why Join?)
  • Login
  • US Flag 
02:06AM EDT


 

Airport Tracker/Info


-or-


 

Live Flight TrackerFlight Track Log ✈ N9AM ✈ 26-Apr-2013 ✈ KACT - KDPA

Flight Track Log - Related Links

Times and Time Zones

All times are in EDT time to prevent confusion due to time zone crossing. See the N9AM flight status page for this flight to view local times or setup timezone preferences in your user account.

Time Position Orientation Groundspeed Altitude Reporting Facility
EDT Latitude Longitude Course Direction KTS MPH feet Rate Location/Type
10:01AM 31.7894 -96.8932 56° Northeast  Level FlightAware Approximate
10:02AM 31.8204 -96.8387 56° Northeast  Level FlightAware Approximate
10:03AM 31.8513 -96.7841 56° Northeast  Level FlightAware Approximate
10:04AM 31.8821 -96.7295 56° Northeast  Level FlightAware Approximate
10:04AM 31.8444 -96.7850 55° Northeast 208 239 5,400  Level Fort Worth Center
10:05AM 31.9130 -96.6749 56° Northeast  Level FlightAware Approximate
10:05AM 31.8753 -96.7406 51° Northeast 215 247 6,000  Level Fort Worth Center
10:06AM 31.9438 -96.6202 56° Northeast  Level FlightAware Approximate
10:06AM 31.9044 -96.6867 57° Northeast 199 229 6,700  Level Fort Worth Center
10:07AM 31.9746 -96.5655 56° Northeast  Level FlightAware Approximate
10:07AM 31.9333 -96.6325 58° Northeast 194 223 7,000  Level Fort Worth Center
10:08AM 32.0065 -96.5116 55° Northeast  Level FlightAware Approximate
10:08AM 31.9725 -96.5783 50° Northeast 194 223 7,000  Level Fort Worth Center
10:09AM 32.0387 -96.4580 55° Northeast  Level FlightAware Approximate
10:09AM 32.0056 -96.5192 57° Northeast 213 245 7,000  Level Fort Worth Center
10:10AM 32.0406 -96.4625 54° Northeast 213 245 7,000  Level Fort Worth Center
10:11AM 32.0736 -96.4081 54° Northeast 213 245 7,000  Level Fort Worth Center
10:12AM 32.1067 -96.3514 55° Northeast 213 245 7,000  Level Fort Worth Center
10:13AM 32.1375 -96.2994 55° Northeast 213 245 7,000  Level Fort Worth Center
10:14AM 32.1744 -96.2403 54° Northeast 218 251 7,000  Level Fort Worth Center
10:15AM 32.2222 -96.1953 39° Northeast 201 231 7,000  Level Fort Worth Center
10:16AM 32.2739 -96.1603 30° Northeast 208 239 7,000  Level Fort Worth Center
10:17AM 32.3258 -96.1228 31° Northeast 208 239 7,000  Level Fort Worth Center
10:18AM 32.3775 -96.0875 30° Northeast 214 246 7,000  Level Fort Worth Center
10:19AM 32.4294 -96.0497 32° Northeast 209 241 7,000  Level Fort Worth Center
10:20AM 32.4792 -96.0147 31° Northeast 204 235 7,000  Level Fort Worth Center
10:21AM 32.5308 -95.9769 32° Northeast 210 242 7,000  Level Fort Worth Center
10:22AM 32.5806 -95.9417 31° Northeast 205 236 7,000  Level Fort Worth Center
10:23AM 32.6322 -95.9036 32° Northeast 211 243 7,000 60 Level Fort Worth Center
10:24AM 32.6839 -95.8658 32° Northeast 206 237 7,200 480 Climbing Fort Worth Center
10:25AM 32.7317 -95.8328 30° Northeast 201 231 8,000 660 Climbing Fort Worth Center
10:26AM 32.7750 -95.8025 30° Northeast 187 215 8,600 480 Climbing Fort Worth Center
10:27AM 32.8144 -95.7744 31° Northeast 181 208 9,000 -300 Climbing Fort Worth Center
10:28AM 32.8681 -95.7364 31° Northeast 196 226 8,000  Descending Fort Worth Center
10:29AM 32.9219 -95.6983 31° Northeast 218 251 9,000 300 Climbing Fort Worth Center
10:31AM 33.0086 -95.6322 33° Northeast 194 223 9,000  Level Fort Worth Center
10:32AM 33.0581 -95.5917 35° Northeast 204 235 9,100  Climbing Fort Worth Center
10:33AM 33.1100 -95.5558 30° Northeast 209 241 9,100  Level Fort Worth Center
10:34AM 33.1572 -95.5128 37° Northeast 209 241 9,100  Level Fort Worth Center
10:35AM 33.1919 -95.4547 54° Northeast 204 235 9,100  Level Fort Worth Center
10:36AM 33.2222 -95.3944 59° Northeast 204 235 9,100  Level Fort Worth Center
10:37AM 33.2567 -95.3367 55° Northeast 204 235 9,100 -60 Level Fort Worth Center
10:38AM 33.2892 -95.2789 56° Northeast 210 242 9,000 -60 Descending Fort Worth Center
10:39AM 33.3214 -95.2183 57° Northeast 215 247 9,000  Level Fort Worth Center
10:40AM 33.3539 -95.1628 55° Northeast 210 242 9,000  Level Fort Worth Center
10:41AM 33.3861 -95.1022 57° Northeast 210 242 9,000  Level Fort Worth Center
10:42AM 33.4164 -95.0442 58° Northeast 210 242 9,000  Level Fort Worth Center
10:43AM 33.4486 -94.9861 56° Northeast 215 247 9,000  Level Fort Worth Center
10:44AM 33.4811 -94.9281 56° Northeast 215 247 9,000  Level Fort Worth Center
10:45AM 33.5111 -94.8697 58° Northeast 215 247 9,000  Level Fort Worth Center
10:46AM 33.5433 -94.8092 57° Northeast 215 247 9,000  Level Fort Worth Center
10:47AM 33.5756 -94.7533 55° Northeast 215 247 9,000  Level Fort Worth Center
10:48AM 33.6056 -94.6950 58° Northeast 215 247 9,000  Level Fort Worth Center
10:49AM 33.6375 -94.6342 58° Northeast 215 247 9,000  Level Fort Worth Center
10:50AM 33.6697 -94.5783 55° Northeast 215 247 9,100  Climbing Fort Worth Center
10:51AM 33.7019 -94.5197 57° Northeast 215 247 9,100  Level Fort Worth Center
10:52AM 33.7339 -94.4589 58° Northeast 215 247 9,100  Level Fort Worth Center
10:53AM 33.7658 -94.4003 57° Northeast 215 247 9,100 -60 Level Fort Worth Center
10:54AM 33.7956 -94.3417 59° Northeast 215 247 9,000  Descending Fort Worth Center
10:55AM 33.8256 -94.2831 58° Northeast 215 247 9,100  Climbing Fort Worth Center
10:56AM 33.8594 -94.2244 55° Northeast 215 247 9,100  Level Fort Worth Center
10:57AM 33.8894 -94.1683 57° Northeast 215 247 9,100 300 Level Fort Worth Center
10:58AM 33.9172 -94.1122 59° Northeast 209 241 9,800 600 Climbing Fort Worth Center
11:00AM 33.9711 -94.0114 57° Northeast 186 214 11,100 420 Climbing Memphis Center
11:01AM 33.9978 -93.9575 59° Northeast 180 207 11,200  Climbing Memphis Center
11:02AM 34.0286 -93.8986 58° Northeast 192 221 11,200 -60 Level Memphis Center
11:03AM 34.0594 -93.8422 57° Northeast 198 228 11,100 -60 Descending Memphis Center
11:04AM 34.0883 -93.7831 59° Northeast 203 234 11,100  Level Memphis Center
11:05AM 34.1211 -93.7217 57° Northeast 203 234 11,100  Level Memphis Center
11:06AM 34.1542 -93.6628 56° Northeast 208 239 11,100  Level Memphis Center
11:07AM 34.1850 -93.6011 59° Northeast 208 239 11,100  Level Memphis Center
11:08AM 34.2178 -93.5372 58° Northeast 208 239 11,100  Level Memphis Center
11:09AM 34.2486 -93.4781 58° Northeast 208 239 11,100  Level Memphis Center
11:10AM 34.2792 -93.4186 58° Northeast 208 239 11,100  Level Memphis Center
11:11AM 34.3119 -93.3594 56° Northeast 208 239 11,100  Level Memphis Center
11:12AM 34.3408 -93.2925 62° Northeast 213 245 11,200  Climbing Memphis Center
11:13AM 34.3753 -93.2358 54° Northeast 207 238 11,200  Level Memphis Center
11:14AM 34.4039 -93.1739 61° Northeast 207 238 11,200  Level Memphis Center
11:15AM 34.4406 -93.1222 49° Northeast 207 238 11,200  Level Memphis Center
11:16AM 34.4814 -93.0733 45° Northeast 207 238 11,200  Level Memphis Center
11:17AM 34.5219 -93.0217 46° Northeast 202 232 11,200  Level Memphis Center
11:18AM 34.5628 -92.9700 46° Northeast 208 239 11,200 -60 Level Memphis Center
11:19AM 34.6014 -92.9256 43° Northeast 212 244 11,100 -120 Descending Memphis Center
11:19AM 34.6119 -92.9108 49° Northeast 213 245 11,100 60 Level Memphis Center
11:20AM 34.6442 -92.8689 47° Northeast 208 239 11,200  Climbing Memphis Center
11:20AM 34.6569 -92.8517 48° Northeast 211 243 11,100  Descending Memphis Center
11:21AM 34.6847 -92.8169 46° Northeast 208 239 11,200  Climbing Memphis Center
11:21AM 34.6956 -92.8047 43° Northeast 212 244 11,100  Descending Memphis Center
11:22AM 34.7256 -92.7653 47° Northeast 208 239 11,200  Climbing Memphis Center
11:22AM 34.7383 -92.7478 48° Northeast 213 245 11,100 -120 Descending Memphis Center
11:23AM 34.7661 -92.7158 43° Northeast 208 239 11,100 -120 Level Memphis Center
11:23AM 34.7769 -92.6983 53° Northeast 212 244 11,000  Descending Memphis Center
11:24AM 34.8067 -92.6611 46° Northeast 208 239 11,100  Climbing Memphis Center
11:24AM 34.8217 -92.6414 47° Northeast 211 243 11,000  Descending Memphis Center
11:25AM 34.8453 -92.6117 46° Northeast 213 245 11,100  Climbing Memphis Center
11:25AM 34.8644 -92.5869 47° Northeast 210 242 11,000  Descending Memphis Center
11:26AM 34.8878 -92.5597 44° Northeast 213 245 11,100  Climbing Memphis Center
11:26AM 34.9028 -92.5372 51° Northeast 211 243 11,000  Descending Memphis Center
11:27AM 34.9283 -92.5050 46° Northeast 213 245 11,100  Climbing Memphis Center
11:27AM 34.9414 -92.4875 48° Northeast 212 244 11,000  Descending Memphis Center
11:28AM 34.9689 -92.4553 44° Northeast 213 245 11,100  Climbing Memphis Center
11:28AM 34.9881 -92.4281 49° Northeast 213 245 11,000  Descending Memphis Center
11:29AM 35.0094 -92.4006 46° Northeast 213 245 11,100  Climbing Memphis Center
11:30AM 35.0328 -92.3733 44° Northeast 214 246 11,000  Descending Memphis Center
11:30AM 35.0500 -92.3483 50° Northeast 213 245 11,100  Climbing Memphis Center
11:31AM 35.0692 -92.3158 54° Northeast 210 242 11,000  Descending Memphis Center
11:31AM 35.0842 -92.2933 51° Northeast 213 245 11,100  Climbing Memphis Center
11:32AM 35.1036 -92.2581 56° Northeast 208 239 11,000  Descending Memphis Center
11:32AM 35.1164 -92.2331 58° Northeast 226 260 11,100 60 Climbing Memphis Center
11:33AM 35.1486 -92.1728 57° Northeast 227 261 11,100  Level Memphis Center
11:34AM 35.1808 -92.1100 58° Northeast 227 261 11,100 -60 Level Memphis Center
11:35AM 35.2108 -92.0472 60° Northeast 222 255 11,000 -60 Descending Memphis Center
11:36AM 35.2553 -91.9947 44° Northeast 222 255 11,000  Level Memphis Center
11:37AM 35.2978 -91.9419 45° Northeast 217 250 11,000  Level Memphis Center
11:38AM 35.3422 -91.8919 43° Northeast 212 244 11,000  Level Memphis Center
11:39AM 35.3825 -91.8367 48° Northeast 212 244 11,000  Level Memphis Center
11:40AM 35.4289 -91.7864 41° Northeast 217 250 11,000  Level Memphis Center
11:41AM 35.4711 -91.7336 46° Northeast 217 250 11,000  Level Memphis Center
11:42AM 35.5156 -91.6833 43° Northeast 217 250 11,000  Level Memphis Center
11:43AM 35.5642 -91.6383 37° Northeast 217 250 11,000  Level Memphis Center
11:44AM 35.6206 -91.6161 18° North 205 236 11,000  Level Memphis Center
11:45AM 35.6750 -91.5914 20° North 200 230 11,100  Climbing Memphis Center
11:46AM 35.7275 -91.5642 23° Northeast 200 230 11,000 -60 Descending Memphis Center
11:47AM 35.7839 -91.5367 22° Northeast 206 237 11,000  Level Memphis Center
11:48AM 35.8406 -91.5119 19° North 211 243 11,000  Level Memphis Center
11:49AM 35.8950 -91.4844 22° Northeast 211 243 11,000  Level Memphis Center
11:50AM 35.9475 -91.4544 25° Northeast 211 243 11,000 -300 Level Memphis Center
11:51AM 35.9997 -91.4294 21° North 211 243 10,500 -660 Descending Memphis Center
11:52AM 36.0522 -91.3967 27° Northeast 225 259 9,700 -780 Descending Memphis Center
11:53AM 36.1233 -91.3694 17° North 233 268 9,000 -720 Descending Memphis Center
11:54AM 36.1819 -91.3392 23° Northeast 233 268 8,300 -780 Descending Memphis Center
11:55AM 36.2364 -91.3064 26° Northeast 225 259 7,500 -660 Descending Memphis Center
11:56AM 36.2969 -91.2761 22° Northeast 225 259 7,000 -300 Descending Memphis Center
11:57AM 36.3578 -91.2511 18° North 225 259 7,000  Level Memphis Center
11:58AM 36.4058 -91.2258 23° Northeast 220 253 7,000  Level Memphis Center
11:59AM 36.4603 -91.1981 22° Northeast 207 238 7,000 -60 Level Memphis Center
12:00PM 36.5144 -91.1756 18° North 207 238 6,900  Descending Memphis Center
12:01PM 36.5667 -91.1528 19° North 207 238 7,000  Climbing Memphis Center
12:02PM 36.6211 -91.1247 22° Northeast 207 238 7,000  Level Memphis Center
12:03PM 36.6672 -91.0967 26° Northeast 196 226 7,000  Level Memphis Center
12:04PM 36.7194 -91.0714 21° North 190 219 7,000  Level Memphis Center
12:06PM 36.8464 -91.0061 22° Northeast 201 231 7,100  Climbing Kansas City Center
12:07PM 36.8986 -90.9803 22° Northeast 200 230 7,100  Level Kansas City Center
12:08PM 36.9517 -90.9547 21° North 203 234 7,100  Level Kansas City Center
12:09PM 37.0039 -90.9267 23° Northeast 203 234 7,100  Level Kansas City Center
12:10PM 37.0575 -90.9000 22° Northeast 205 236 7,100 -60 Level Kansas City Center
12:11PM 37.1206 -90.8675 22° Northeast 206 237 7,000 -60 Descending Kansas City Center
12:12PM 37.1739 -90.8406 22° Northeast 206 237 7,000  Level Kansas City Center
12:13PM 37.2269 -90.8136 22° Northeast 206 237 7,000  Level Kansas City Center
12:14PM 37.2806 -90.7858 22° Northeast 207 238 7,000  Level Kansas City Center
12:17PM 37.3931 -90.7289 22° Northeast 209 241 7,000  Level Kansas City Center
12:18PM 37.4464 -90.7017 22° Northeast 209 241 7,000  Level Kansas City Center
12:19PM 37.5000 -90.6742 22° Northeast 208 239 7,000  Level Kansas City Center
12:20PM 37.5544 -90.6447 23° Northeast 211 243 7,000  Level Kansas City Center
12:21PM 37.6089 -90.6175 22° Northeast 212 244 7,000  Level Kansas City Center
12:22PM 37.6636 -90.5900 22° Northeast 211 243 7,000  Level Kansas City Center
12:23PM 37.7269 -90.5556 23° Northeast 207 238 7,000  Level Kansas City Center
12:24PM 37.7800 -90.5297 21° North 206 237 7,000  Level Kansas City Center
12:25PM 37.8319 -90.5028 22° Northeast 203 234 7,000  Level Kansas City Center
12:26PM 37.8842 -90.4750 23° Northeast 204 235 7,100  Climbing Kansas City Center
12:27PM 37.9369 -90.4467 23° Northeast 207 238 7,100  Level Kansas City Center
12:28PM 37.9886 -90.4197 22° Northeast 201 231 7,100  Level Kansas City Center
12:29PM 38.0522 -90.3875 22° Northeast 205 236 7,100  Level Kansas City Center
12:30PM 38.1039 -90.3581 24° Northeast 202 232 7,100 -60 Level Kansas City Center
12:31PM 38.1597 -90.3303 21° North 201 231 7,000 -60 Descending Kansas City Center
12:32PM 38.2114 -90.3028 23° Northeast 201 231 7,000  Level Kansas City Center
12:33PM 38.2622 -90.2769 22° Northeast 198 228 7,000  Level Kansas City Center
12:34PM 38.3158 -90.2483 23° Northeast 195 224 7,000  Level Kansas City Center
12:35PM 38.3656 -90.2214 23° Northeast 194 223 7,000  Level Kansas City Center
12:36PM 38.4167 -90.1958 21° North 195 224 7,000  Level Kansas City Center
12:37PM 38.4692 -90.1694 21° North 199 229 7,000  Level Kansas City Center
12:38PM 38.5208 -90.1406 24° Northeast 201 231 7,000  Level Kansas City Center
12:39PM 38.5744 -90.1128 22° Northeast 205 236 7,000  Level Kansas City Center
12:40PM 38.6272 -90.0842 23° Northeast 207 238 7,000  Level Kansas City Center
12:41PM 38.6911 -90.0508 22° Northeast 208 239 7,000  Level Kansas City Center
12:42PM 38.7442 -90.0228 22° Northeast 208 239 7,000  Level Kansas City Center
12:43PM 38.7967 -89.9947 23° Northeast 207 238 7,000  Level Kansas City Center
12:44PM 38.8481 -89.9675 22° Northeast 204 235 7,000  Level Kansas City Center
12:45PM 38.9000 -89.9392 23° Northeast 203 234 7,000  Level Kansas City Center
12:46PM 38.9589 -89.9075 23° Northeast 198 228 7,000  Level Kansas City Center
12:47PM 39.0106 -89.8806 22° Northeast 198 228 7,000  Level Kansas City Center
12:48PM 39.0678 -89.8492 23° Northeast 205 236 7,000  Level Kansas City Center
12:49PM 39.1194 -89.8214 23° Northeast 202 232 7,000  Level Kansas City Center
12:51PM 39.1767 -89.7908 22° Northeast 207 238 7,000  Level Kansas City Center
12:52PM 39.2217 -89.7639 25° Northeast 206 237 7,000  Level Kansas City Center
12:53PM 39.2764 -89.7367 21° North 209 241 7,000  Level Kansas City Center
12:54PM 39.3400 -89.7011 23° Northeast 208 239 7,000  Level Kansas City Center
12:55PM 39.3944 -89.6722 22° Northeast 210 242 7,000  Level Kansas City Center
12:56PM 39.4475 -89.6431 23° Northeast 209 241 7,000  Level Kansas City Center
12:57PM 39.5014 -89.6142 22° Northeast 210 242 7,000  Level Kansas City Center
12:58PM 39.5550 -89.5853 23° Northeast 209 241 7,000  Level Kansas City Center
12:59PM 39.6075 -89.5553 24° Northeast 208 239 7,000  Level Kansas City Center
01:00PM 39.6611 -89.5247 24° Northeast 209 241 7,000  Level Kansas City Center
01:01PM 39.7167 -89.4958 22° Northeast 209 241 7,000  Level Kansas City Center
01:02PM 39.7806 -89.4606 23° Northeast 208 239 7,000  Level Kansas City Center
01:03PM 39.8339 -89.4308 23° Northeast 208 239 7,000  Level Kansas City Center
01:04PM 39.8869 -89.4006 24° Northeast 208 239 7,000  Level Kansas City Center
01:05PM 39.9414 -89.3714 22° Northeast 211 243 7,000  Level Kansas City Center
01:06PM 39.9964 -89.3419 22° Northeast 213 245 7,000  Level Kansas City Center
01:07PM 40.0494 -89.3122 23° Northeast 209 241 7,000  Level Kansas City Center
01:08PM 40.1131 -89.2758 24° Northeast 208 239 7,000  Level Kansas City Center
01:09PM 40.1714 -89.2444 22° Northeast 209 241 7,000  Level Chicago Center